Marion, Connecticut
Current Conditions -  °F | °C
As of 12:53 PM on Friday 28 Nov 2014 (Local Time) from KMMK Reporting Station
Clear Clear  
Wind Chill: 27°   Ceiling: Unl
Heat Index: 36°   Visibility: 10mi
Dew Point: 19°   Wind: 14mph
Humidity: 50%   Direction: 330°NNW
Pressure: 30.1"   Gusts: 21mph
Location:  41.56°N, 72.93°W
Report Text: KMMK 281753Z AUTO 33012G18KT 10SM CLR 02/M07 A3010 RMK AO2 SLP196 T00221072 10022 21017 58009 TSNO
Loading
Personal Weather Stations






























Interactive Weather Map New forecast layout! Learn more

10-Day Weather Forecast

Advertisements
Track Severe Weather on mobile